aviador You're here:

YFRT Decoded Metar

FORREST in _UNIDENTIFIED
Report Time2018-02-22 08:00:00
UTC Time2018-02-22 08:31:40
Flight Rules unknown UNKNOWN
Wind230° at 15 kt
W.Decomp.*RWY 27: 11.0 kt HW 10.2 kt LCW
RWY 18: 10.2 kt HW 11.0 kt RCW
W.Rank230° ranks 24
Current wind is above 230° avg. (10.5)
VisibilityN/A
Phenomena:N/A
Clouds:N/A
Expected CloudBase > 2,400 ft AGL from Temp-Dew spread
CeilingNone
Temp26°C (ISA +12)
Dew Point20°C (70% RH)
AAT24.3°C
QNH1006 hPa
Density Alt2,448 ft
Elevation512 ft
Report Wrong Elevation
Raw Report
METAR YFRT 220800Z AUTO 23015KT //// // ////// 26/20 Q1006=

Extra information for YFRT:More info

Metar Taf Metar & Taf Last 4 Metars F.Rules Stats Wind Profile Meteogram Temp Stats Airport Information Weather charts Add Link Nearby VenuesMetar ALERT Operation Metar Decoded Social comments